createdAt,value
2023-02-19T00:01:38.162Z,8.22
2023-02-19T00:04:11.273Z,8.22
2023-02-19T00:06:37.671Z,8.23
2023-02-19T00:09:04.211Z,8.22
2023-02-19T00:11:32.001Z,8.21
2023-02-19T00:13:59.115Z,8.20
2023-02-19T00:16:36.017Z,8.18
2023-02-19T00:19:04.316Z,8.16
2023-02-19T00:21:30.925Z,8.17
2023-02-19T00:24:04.804Z,8.17
2023-02-19T00:26:31.245Z,8.20
2023-02-19T00:28:57.667Z,8.17
2023-02-19T00:31:25.825Z,8.15
2023-02-19T00:33:56.745Z,8.15
2023-02-19T00:36:23.272Z,8.13
2023-02-19T00:38:49.793Z,8.12
2023-02-19T00:41:19.532Z,8.11
2023-02-19T00:44:00.050Z,8.12
2023-02-19T00:46:28.358Z,8.12
2023-02-19T00:48:55.197Z,8.12
2023-02-19T00:51:22.851Z,8.13
2023-02-19T00:53:49.249Z,8.11
2023-02-19T00:56:15.672Z,8.12
2023-02-19T00:58:42.230Z,8.14
2023-02-19T01:01:09.208Z,8.16
2023-02-19T01:03:35.885Z,8.15
2023-02-19T01:06:02.723Z,8.17
2023-02-19T01:08:30.899Z,8.18
2023-02-19T01:10:57.922Z,8.19
2023-02-19T01:13:24.538Z,8.20
2023-02-19T01:15:50.984Z,8.22
2023-02-19T01:18:17.471Z,8.24
2023-02-19T01:20:44.942Z,8.28
2023-02-19T01:23:11.992Z,8.28
2023-02-19T01:25:39.621Z,8.29
2023-02-19T01:28:06.576Z,8.32
2023-02-19T01:30:37.068Z,8.33
2023-02-19T01:33:07.295Z,8.33
2023-02-19T01:35:33.779Z,8.34
2023-02-19T01:38:00.299Z,8.35
2023-02-19T01:40:26.969Z,8.34
2023-02-19T01:42:53.310Z,8.34
2023-02-19T01:45:30.314Z,8.33
2023-02-19T01:48:00.872Z,8.32
2023-02-19T01:50:28.801Z,8.31
2023-02-19T01:52:55.502Z,8.28
2023-02-19T01:55:21.924Z,8.26
2023-02-19T01:57:48.646Z,8.25
2023-02-19T02:00:16.529Z,8.24
2023-02-19T02:02:44.485Z,8.24
2023-02-19T02:05:24.452Z,8.21
2023-02-19T02:08:09.364Z,8.20
2023-02-19T02:10:35.753Z,8.17
2023-02-19T02:13:02.143Z,8.14
2023-02-19T02:15:34.731Z,8.15
2023-02-19T02:18:42.519Z,8.13
2023-02-19T02:21:18.239Z,8.11
2023-02-19T02:24:03.323Z,8.14
2023-02-19T02:26:49.955Z,8.13
2023-02-19T02:30:04.768Z,8.14
2023-02-19T02:32:33.686Z,8.12
2023-02-19T02:35:03.816Z,8.11
2023-02-19T02:37:30.753Z,8.09
2023-02-19T02:39:58.148Z,8.07
2023-02-19T02:42:27.421Z,8.02
2023-02-19T02:45:13.176Z,8.00
2023-02-19T02:47:53.547Z,7.97
2023-02-19T02:50:26.381Z,7.94
2023-02-19T02:53:14.437Z,7.93
2023-02-19T02:55:44.422Z,7.94
2023-02-19T02:58:14.640Z,7.93
2023-02-19T03:01:00.447Z,7.94
2023-02-19T03:03:26.828Z,7.91
2023-02-19T03:05:55.077Z,7.89
2023-02-19T03:08:45.828Z,7.88
2023-02-19T03:11:30.650Z,7.89
2023-02-19T03:14:19.087Z,7.85
2023-02-19T03:17:04.110Z,7.85
2023-02-19T03:19:31.569Z,7.87
2023-02-19T03:22:09.753Z,7.87
2023-02-19T03:24:57.296Z,7.89
2023-02-19T03:27:23.651Z,7.87
2023-02-19T03:29:50.150Z,7.86
2023-02-19T03:32:28.920Z,7.84
2023-02-19T03:35:06.365Z,7.56
2023-02-19T03:37:35.554Z,7.33
2023-02-19T03:40:01.928Z,7.20
2023-02-19T03:42:28.271Z,7.07
2023-02-19T03:45:13.033Z,6.89
2023-02-19T03:48:19.462Z,6.76
2023-02-19T03:50:50.668Z,6.69
2023-02-19T03:53:51.820Z,6.59
2023-02-19T03:56:39.189Z,6.40
2023-02-19T03:59:10.187Z,6.26
2023-02-19T04:01:41.495Z,6.24
2023-02-19T04:04:22.695Z,6.24
2023-02-19T04:06:52.838Z,6.20
2023-02-19T04:09:19.374Z,6.09
2023-02-19T04:11:45.757Z,5.99
2023-02-19T04:14:18.375Z,5.87
2023-02-19T04:16:47.251Z,5.84
2023-02-19T04:19:14.713Z,5.67
2023-02-19T04:21:41.101Z,5.73
2023-02-19T04:24:11.412Z,5.69
2023-02-19T04:26:37.763Z,5.61
2023-02-19T04:29:04.239Z,5.58
2023-02-19T04:31:30.660Z,5.56
2023-02-19T04:33:57.133Z,5.57
2023-02-19T04:36:23.673Z,5.47
2023-02-19T04:38:50.034Z,5.40
2023-02-19T04:41:16.370Z,5.42
2023-02-19T04:43:42.755Z,5.47
2023-02-19T04:46:09.158Z,5.32
2023-02-19T04:48:35.516Z,5.33
2023-02-19T04:51:06.470Z,5.23
2023-02-19T04:53:33.188Z,5.18
2023-02-19T04:56:09.201Z,5.17
2023-02-19T04:58:35.646Z,5.15
2023-02-19T05:01:02.041Z,5.23
2023-02-19T05:03:28.515Z,5.27
2023-02-19T05:05:54.875Z,5.25
2023-02-19T05:08:21.252Z,5.37
2023-02-19T05:10:47.794Z,5.33
2023-02-19T05:13:14.202Z,5.28
2023-02-19T05:15:40.647Z,5.31
2023-02-19T05:18:07.126Z,5.24
2023-02-19T05:20:33.450Z,5.16
2023-02-19T05:22:59.788Z,5.21
2023-02-19T05:25:26.237Z,5.17
2023-02-19T05:28:12.563Z,5.07
2023-02-19T05:30:38.958Z,5.10
2023-02-19T05:33:05.360Z,5.00
2023-02-19T05:35:31.817Z,4.98
2023-02-19T05:37:58.231Z,4.97
2023-02-19T05:40:24.595Z,4.87
2023-02-19T05:42:50.949Z,4.86
2023-02-19T05:45:17.334Z,4.85
2023-02-19T05:47:43.680Z,4.71
2023-02-19T05:50:10.058Z,4.50
2023-02-19T05:52:36.634Z,4.48
2023-02-19T05:55:03.072Z,4.42
2023-02-19T05:57:29.536Z,4.38
2023-02-19T05:59:56.658Z,4.36
2023-02-19T06:02:23.125Z,4.40
2023-02-19T06:04:49.541Z,4.36
2023-02-19T06:07:16.168Z,4.26
2023-02-19T06:09:42.517Z,4.21
2023-02-19T06:12:08.872Z,4.21
2023-02-19T06:14:35.402Z,4.20
2023-02-19T06:17:01.801Z,4.20
2023-02-19T06:19:28.143Z,4.23
2023-02-19T06:21:54.517Z,4.16
2023-02-19T06:24:20.873Z,4.02
2023-02-19T06:26:47.248Z,3.93
2023-02-19T06:29:13.661Z,3.95
2023-02-19T06:31:40.178Z,3.96
2023-02-19T06:34:06.637Z,3.82
2023-02-19T06:36:33.086Z,3.84
2023-02-19T06:39:00.350Z,3.81
2023-02-19T06:41:26.739Z,3.76
2023-02-19T06:43:53.155Z,3.78
2023-02-19T06:46:19.503Z,3.71
2023-02-19T06:48:45.944Z,3.76
2023-02-19T06:51:18.673Z,3.76
2023-02-19T06:53:45.748Z,3.77
2023-02-19T06:56:34.202Z,3.76
2023-02-19T06:59:02.461Z,3.80
2023-02-19T07:01:29.785Z,3.78
2023-02-19T07:03:56.336Z,3.78
2023-02-19T07:06:23.534Z,3.90
2023-02-19T07:08:50.095Z,3.89
2023-02-19T07:11:16.976Z,3.89
2023-02-19T07:13:43.333Z,3.98
2023-02-19T07:16:10.900Z,3.97
2023-02-19T07:18:37.569Z,4.02
2023-02-19T07:21:04.507Z,4.04
2023-02-19T07:23:30.939Z,3.90
2023-02-19T07:25:57.403Z,3.91
2023-02-19T07:28:23.897Z,4.03
2023-02-19T07:30:50.278Z,4.00
2023-02-19T07:33:16.924Z,4.06
2023-02-19T07:35:50.038Z,4.02
2023-02-19T07:38:17.451Z,4.02
2023-02-19T07:40:56.964Z,3.91
2023-02-19T07:43:24.416Z,3.93
2023-02-19T07:45:50.894Z,3.94
2023-02-19T07:48:17.496Z,3.85
2023-02-19T07:50:54.278Z,3.89
2023-02-19T07:53:20.932Z,3.93
2023-02-19T07:55:47.304Z,3.84
2023-02-19T07:58:13.891Z,3.96
2023-02-19T08:00:40.264Z,3.89
2023-02-19T08:03:06.803Z,3.96
2023-02-19T08:05:40.899Z,4.11
2023-02-19T08:08:08.279Z,4.10
2023-02-19T08:10:53.387Z,4.17
2023-02-19T08:13:19.812Z,4.14
2023-02-19T08:15:46.554Z,4.12
2023-02-19T08:18:14.095Z,4.10
2023-02-19T08:20:40.720Z,4.11
2023-02-19T08:23:07.212Z,4.07
2023-02-19T08:25:33.804Z,4.12
2023-02-19T08:28:00.368Z,4.18
2023-02-19T08:30:27.893Z,4.29
2023-02-19T08:32:54.796Z,4.22
2023-02-19T08:35:21.178Z,4.23
2023-02-19T08:37:47.520Z,4.31
2023-02-19T08:40:14.068Z,4.28
2023-02-19T08:42:40.430Z,4.42
2023-02-19T08:45:07.207Z,4.50
2023-02-19T08:47:36.928Z,4.49
2023-02-19T08:50:05.032Z,4.50
2023-02-19T08:52:31.656Z,4.54
2023-02-19T08:54:58.280Z,4.58
2023-02-19T08:57:25.109Z,4.68
2023-02-19T08:59:51.451Z,4.73
2023-02-19T09:02:17.896Z,4.76
2023-02-19T09:04:44.243Z,4.75
2023-02-19T09:07:11.665Z,4.80
2023-02-19T09:09:38.194Z,4.90
2023-02-19T09:12:05.904Z,4.91
2023-02-19T09:14:33.566Z,4.93
2023-02-19T09:17:00.826Z,4.93
2023-02-19T09:19:27.684Z,4.76
2023-02-19T09:21:54.241Z,4.79
2023-02-19T09:24:20.769Z,4.79
2023-02-19T09:26:51.101Z,4.95
2023-02-19T09:29:17.679Z,5.01
2023-02-19T09:31:47.556Z,5.00
2023-02-19T09:34:13.967Z,5.04
2023-02-19T09:36:40.309Z,5.08
2023-02-19T09:39:08.186Z,5.12
2023-02-19T09:41:36.749Z,5.11
2023-02-19T09:44:04.862Z,5.17
2023-02-19T09:46:46.472Z,5.12
2023-02-19T09:49:17.078Z,5.15
2023-02-19T09:51:46.055Z,5.24
2023-02-19T09:54:20.017Z,5.33
2023-02-19T09:56:46.425Z,5.25
2023-02-19T09:59:21.098Z,5.22
2023-02-19T10:01:48.137Z,5.12
2023-02-19T10:04:14.512Z,5.10
2023-02-19T10:06:40.886Z,5.18
2023-02-19T10:09:23.568Z,5.41
2023-02-19T10:11:50.048Z,5.42
2023-02-19T10:14:19.209Z,5.45
2023-02-19T10:16:45.931Z,5.43
2023-02-19T10:19:12.705Z,5.56
2023-02-19T10:21:39.069Z,5.65
2023-02-19T10:24:05.994Z,5.53
2023-02-19T10:26:35.496Z,5.52
2023-02-19T10:29:05.247Z,5.61
2023-02-19T10:31:32.621Z,5.63
2023-02-19T10:34:03.261Z,5.75
2023-02-19T10:36:40.041Z,5.68
2023-02-19T10:39:31.772Z,5.73
2023-02-19T10:41:58.762Z,5.73
2023-02-19T10:44:27.363Z,5.66
2023-02-19T10:46:58.014Z,5.54
2023-02-19T10:49:24.516Z,5.58
2023-02-19T10:51:51.004Z,5.62
2023-02-19T10:54:28.982Z,5.69
2023-02-19T10:57:07.269Z,5.73
2023-02-19T10:59:33.849Z,6.00
2023-02-19T11:02:01.782Z,6.22
2023-02-19T11:04:35.279Z,6.16
2023-02-19T11:07:13.863Z,6.16
2023-02-19T11:09:41.640Z,6.13
2023-02-19T11:12:09.542Z,6.25
2023-02-19T11:14:36.073Z,6.19
2023-02-19T11:17:04.768Z,6.24
2023-02-19T11:19:43.688Z,6.03
2023-02-19T11:22:29.919Z,6.03
2023-02-19T11:24:59.331Z,6.10
2023-02-19T11:27:25.964Z,6.21
2023-02-19T11:29:52.466Z,6.40
2023-02-19T11:32:34.655Z,6.63
2023-02-19T11:35:18.360Z,6.75
2023-02-19T11:37:53.912Z,6.61
2023-02-19T11:40:21.400Z,6.62
2023-02-19T11:43:02.382Z,6.62
2023-02-19T11:45:44.958Z,6.76
2023-02-19T11:48:30.315Z,6.53
2023-02-19T11:51:23.785Z,6.46
2023-02-19T11:54:06.739Z,6.63
2023-02-19T11:56:36.168Z,6.76
2023-02-19T11:59:28.846Z,6.98
2023-02-19T12:02:05.308Z,7.14
2023-02-19T12:04:37.982Z,7.47
2023-02-19T12:07:25.991Z,7.50
2023-02-19T12:10:01.325Z,7.60
2023-02-19T12:12:38.092Z,7.63
2023-02-19T12:15:22.761Z,7.55
2023-02-19T12:17:49.162Z,7.46
2023-02-19T12:20:19.606Z,7.56
2023-02-19T12:22:58.159Z,7.74
2023-02-19T12:25:45.933Z,7.92
2023-02-19T12:28:17.116Z,7.80
2023-02-19T12:30:59.486Z,7.75
2023-02-19T12:33:30.831Z,7.75
2023-02-19T12:36:00.157Z,7.55
2023-02-19T12:38:38.870Z,7.57
2023-02-19T12:41:29.683Z,7.68
2023-02-19T12:44:05.295Z,7.89
2023-02-19T12:46:53.033Z,7.99
2023-02-19T12:49:31.777Z,8.03
2023-02-19T12:52:00.558Z,7.93
2023-02-19T12:54:41.649Z,8.03
2023-02-19T12:57:20.733Z,8.03
2023-02-19T12:59:51.083Z,8.10
2023-02-19T13:02:26.708Z,8.14
2023-02-19T13:05:02.300Z,8.34
2023-02-19T13:07:33.851Z,8.41
2023-02-19T13:10:26.886Z,8.52
2023-02-19T13:12:53.258Z,8.50
2023-02-19T13:15:35.854Z,8.57
2023-02-19T13:18:02.829Z,8.50
2023-02-19T13:20:36.962Z,8.45
2023-02-19T13:23:42.217Z,8.44
2023-02-19T13:26:30.449Z,8.54
2023-02-19T13:29:21.004Z,8.50
2023-02-19T13:32:06.366Z,8.38
2023-02-19T13:34:57.417Z,8.39
2023-02-19T13:37:23.854Z,8.21
2023-02-19T13:39:54.334Z,8.10
2023-02-19T13:42:28.789Z,8.17
2023-02-19T13:44:57.893Z,8.27
2023-02-19T13:47:59.246Z,8.51
2023-02-19T13:50:27.550Z,8.52
2023-02-19T13:52:57.844Z,8.56
2023-02-19T13:55:42.728Z,8.43
2023-02-19T13:58:33.880Z,8.23
2023-02-19T14:01:01.672Z,8.22
2023-02-19T14:03:28.775Z,8.13
2023-02-19T14:05:58.952Z,8.06
2023-02-19T14:08:48.709Z,7.98
2023-02-19T14:11:16.040Z,8.05
2023-02-19T14:13:51.665Z,8.02
2023-02-19T14:16:30.229Z,7.96
2023-02-19T14:18:56.600Z,8.04
2023-02-19T14:21:27.901Z,8.10
2023-02-19T14:23:57.456Z,8.11
2023-02-19T14:26:25.226Z,8.01
2023-02-19T14:28:52.046Z,8.02
2023-02-19T14:31:25.214Z,7.93
2023-02-19T14:34:03.357Z,8.03
2023-02-19T14:36:29.753Z,8.04
2023-02-19T14:39:16.299Z,7.95
2023-02-19T14:41:45.851Z,7.87
2023-02-19T14:44:29.649Z,7.83
2023-02-19T14:47:00.593Z,7.85
2023-02-19T14:49:31.391Z,7.81
2023-02-19T14:51:59.724Z,7.73
2023-02-19T14:54:53.485Z,7.75
2023-02-19T14:57:25.375Z,7.75
2023-02-19T14:59:58.402Z,7.73
2023-02-19T15:02:25.964Z,7.73
2023-02-19T15:04:52.654Z,7.73
2023-02-19T15:07:30.322Z,7.76
2023-02-19T15:10:02.933Z,7.68
2023-02-19T15:12:34.720Z,7.68
2023-02-19T15:15:02.758Z,7.61
2023-02-19T15:17:33.655Z,7.56
2023-02-19T15:20:03.263Z,7.51
2023-02-19T15:22:31.790Z,7.42
2023-02-19T15:25:02.492Z,7.40
2023-02-19T15:27:29.162Z,7.40
2023-02-19T15:29:55.509Z,7.45
2023-02-19T15:32:23.934Z,7.41
2023-02-19T15:35:03.465Z,7.33
2023-02-19T15:37:33.688Z,7.35
2023-02-19T15:40:03.293Z,7.32
2023-02-19T15:42:30.630Z,7.24
2023-02-19T15:44:58.875Z,7.21
2023-02-19T15:47:38.458Z,7.16
2023-02-19T15:50:11.396Z,7.09
2023-02-19T15:52:43.351Z,7.05
2023-02-19T15:55:29.923Z,7.03
2023-02-19T15:58:09.029Z,7.01
2023-02-19T16:00:46.183Z,7.00
2023-02-19T16:03:18.194Z,6.95
2023-02-19T16:05:44.700Z,6.94
2023-02-19T16:08:11.043Z,6.93
2023-02-19T16:10:37.718Z,6.84
2023-02-19T16:13:04.830Z,6.75
2023-02-19T16:15:31.877Z,6.72
2023-02-19T16:17:58.532Z,6.70
2023-02-19T16:20:29.709Z,6.63
2023-02-19T16:23:01.778Z,6.60
2023-02-19T16:25:48.405Z,6.53
2023-02-19T16:28:22.146Z,6.45
2023-02-19T16:31:18.036Z,6.40
2023-02-19T16:33:48.692Z,6.31
2023-02-19T16:36:33.338Z,6.17
2023-02-19T16:39:06.755Z,6.11
2023-02-19T16:41:39.309Z,6.13
2023-02-19T16:44:21.055Z,6.12
2023-02-19T16:46:48.555Z,6.13
2023-02-19T16:49:14.886Z,6.12
2023-02-19T16:51:41.342Z,6.10
2023-02-19T16:54:08.849Z,6.01
2023-02-19T16:56:35.196Z,5.89
2023-02-19T16:59:01.632Z,5.88
2023-02-19T17:01:28.009Z,5.88
2023-02-19T17:03:58.132Z,5.87
2023-02-19T17:06:24.542Z,5.83
2023-02-19T17:08:50.884Z,5.79
2023-02-19T17:11:17.454Z,5.71
2023-02-19T17:13:45.782Z,5.70
2023-02-19T17:16:17.410Z,5.64
2023-02-19T17:18:43.850Z,5.51
2023-02-19T17:21:17.328Z,5.46
2023-02-19T17:23:43.728Z,5.45
2023-02-19T17:26:13.910Z,5.50
2023-02-19T17:28:41.460Z,5.49
2023-02-19T17:31:10.001Z,5.46
2023-02-19T17:33:37.174Z,5.47
2023-02-19T17:36:03.923Z,5.47
2023-02-19T17:38:30.303Z,5.44
2023-02-19T17:40:56.657Z,5.38
2023-02-19T17:43:25.414Z,5.35
2023-02-19T17:45:51.961Z,5.29
2023-02-19T17:48:18.365Z,5.26
2023-02-19T17:50:44.753Z,5.25
2023-02-19T17:53:11.148Z,5.25
2023-02-19T17:55:37.554Z,5.23
2023-02-19T17:58:04.142Z,5.19
2023-02-19T18:00:32.113Z,5.20
2023-02-19T18:02:58.567Z,5.19
2023-02-19T18:05:24.952Z,5.14
2023-02-19T18:07:51.306Z,5.05
2023-02-19T18:10:18.681Z,5.05
2023-02-19T18:12:45.083Z,5.03
2023-02-19T18:15:15.914Z,5.05
2023-02-19T18:17:42.271Z,5.06
2023-02-19T18:20:12.032Z,5.06
2023-02-19T18:22:40.904Z,4.98
2023-02-19T18:25:07.353Z,4.95
2023-02-19T18:27:33.742Z,4.87
2023-02-19T18:30:00.402Z,4.85
2023-02-19T18:32:27.173Z,4.85
2023-02-19T18:34:57.477Z,4.84
2023-02-19T18:37:24.608Z,4.87
2023-02-19T18:39:51.631Z,4.86
2023-02-19T18:42:18.125Z,4.84
2023-02-19T18:44:47.362Z,4.86
2023-02-19T18:47:13.933Z,4.85
2023-02-19T18:49:40.345Z,4.82
2023-02-19T18:52:06.744Z,4.81
2023-02-19T18:54:33.120Z,4.75
2023-02-19T18:57:03.748Z,4.74
2023-02-19T18:59:30.784Z,4.74
2023-02-19T19:01:57.136Z,4.75
2023-02-19T19:04:23.774Z,4.69
2023-02-19T19:06:50.209Z,4.68
2023-02-19T19:09:16.579Z,4.69
2023-02-19T19:11:44.344Z,4.70
2023-02-19T19:14:10.773Z,4.72
2023-02-19T19:16:37.449Z,4.70
2023-02-19T19:19:04.001Z,4.68
2023-02-19T19:21:30.627Z,4.72
2023-02-19T19:23:58.067Z,4.73
2023-02-19T19:26:24.444Z,4.74
2023-02-19T19:28:50.837Z,4.73
2023-02-19T19:31:18.346Z,4.77
2023-02-19T19:33:46.681Z,4.81
2023-02-19T19:36:13.706Z,4.81
2023-02-19T19:38:41.192Z,4.84
2023-02-19T19:41:07.580Z,4.83
2023-02-19T19:43:33.937Z,4.79
2023-02-19T19:46:00.410Z,4.79
2023-02-19T19:48:27.660Z,4.80
2023-02-19T19:50:54.448Z,4.74
2023-02-19T19:53:20.814Z,4.75
2023-02-19T19:55:47.174Z,4.80
2023-02-19T19:58:13.511Z,4.79
2023-02-19T20:00:39.869Z,4.79
2023-02-19T20:03:06.922Z,4.80
2023-02-19T20:05:33.270Z,4.79
2023-02-19T20:07:59.644Z,4.81
2023-02-19T20:10:26.017Z,4.77
2023-02-19T20:12:52.396Z,4.79
2023-02-19T20:15:20.761Z,4.77
2023-02-19T20:17:47.272Z,4.80
2023-02-19T20:20:14.049Z,4.80
2023-02-19T20:22:40.423Z,4.82
2023-02-19T20:25:06.865Z,4.83
2023-02-19T20:27:33.235Z,4.86
2023-02-19T20:29:59.623Z,4.85
2023-02-19T20:32:26.025Z,4.83
2023-02-19T20:34:52.448Z,4.82
2023-02-19T20:37:18.806Z,4.83
2023-02-19T20:39:45.177Z,4.83
2023-02-19T20:42:11.607Z,4.84
2023-02-19T20:44:37.998Z,4.85
2023-02-19T20:47:04.666Z,4.81
2023-02-19T20:49:31.322Z,4.83
2023-02-19T20:51:59.634Z,4.82
2023-02-19T20:54:30.512Z,4.80
2023-02-19T20:56:58.375Z,4.81
2023-02-19T20:59:30.725Z,4.79
2023-02-19T21:01:58.116Z,4.77
2023-02-19T21:04:24.696Z,4.76
2023-02-19T21:06:52.219Z,4.77
2023-02-19T21:09:19.497Z,4.74
2023-02-19T21:11:46.160Z,4.75
2023-02-19T21:14:12.519Z,4.69
2023-02-19T21:16:38.880Z,4.65
2023-02-19T21:19:05.236Z,4.68
2023-02-19T21:21:31.928Z,4.64
2023-02-19T21:23:58.910Z,4.60
2023-02-19T21:26:25.405Z,4.54
2023-02-19T21:28:52.217Z,4.56
2023-02-19T21:31:19.508Z,4.58
2023-02-19T21:33:45.999Z,4.50
2023-02-19T21:36:12.549Z,4.50
2023-02-19T21:38:39.021Z,4.46
2023-02-19T21:41:05.401Z,4.42
2023-02-19T21:43:31.793Z,4.45
2023-02-19T21:45:58.216Z,4.42
2023-02-19T21:48:24.632Z,4.42
2023-02-19T21:50:50.981Z,4.41
2023-02-19T21:53:17.483Z,4.44
2023-02-19T21:55:57.391Z,4.42
2023-02-19T21:58:25.255Z,4.46
2023-02-19T22:00:53.744Z,4.47
2023-02-19T22:03:20.267Z,4.48
2023-02-19T22:05:46.605Z,4.44
2023-02-19T22:08:15.503Z,4.51
2023-02-19T22:10:42.451Z,4.53
2023-02-19T22:13:09.289Z,4.55
2023-02-19T22:15:35.693Z,4.59
2023-02-19T22:18:02.103Z,4.62
2023-02-19T22:20:28.454Z,4.63
2023-02-19T22:22:54.796Z,4.69
2023-02-19T22:25:21.327Z,4.68
2023-02-19T22:27:48.880Z,4.71
2023-02-19T22:30:16.003Z,4.75
2023-02-19T22:32:42.519Z,4.77
2023-02-19T22:35:09.117Z,4.80
2023-02-19T22:37:35.458Z,4.81
2023-02-19T22:40:01.896Z,4.84
2023-02-19T22:42:29.303Z,4.84
2023-02-19T22:44:55.707Z,4.87
2023-02-19T22:47:22.108Z,4.88
2023-02-19T22:49:48.659Z,4.90
2023-02-19T22:52:15.107Z,4.91
2023-02-19T22:54:41.476Z,4.93
2023-02-19T22:57:07.837Z,4.94
2023-02-19T22:59:34.282Z,4.94
2023-02-19T23:02:00.876Z,4.95
2023-02-19T23:04:27.295Z,4.95
2023-02-19T23:06:53.763Z,4.97
2023-02-19T23:09:22.085Z,4.98
2023-02-19T23:11:48.479Z,5.00
2023-02-19T23:14:19.357Z,5.00
2023-02-19T23:16:45.839Z,5.02
2023-02-19T23:19:14.161Z,5.01
2023-02-19T23:21:41.361Z,5.04
2023-02-19T23:24:07.833Z,5.08
2023-02-19T23:26:34.362Z,5.10
2023-02-19T23:29:00.760Z,5.13
2023-02-19T23:31:27.326Z,5.15
2023-02-19T23:33:54.792Z,5.16
2023-02-19T23:36:23.727Z,5.18
2023-02-19T23:38:50.340Z,5.20
2023-02-19T23:41:16.828Z,5.23
2023-02-19T23:43:43.532Z,5.27
2023-02-19T23:46:13.226Z,5.29
2023-02-19T23:48:39.954Z,5.31
2023-02-19T23:51:06.368Z,5.35
2023-02-19T23:53:32.945Z,5.37
2023-02-19T23:55:59.340Z,5.39
2023-02-19T23:58:25.706Z,5.41
